sensor_id;sensor_type;location;lat;lon;timestamp;pressure;altitude;pressure_sealevel;temperature;humidity
21664;BME280;10993;52.510;13.456;2024-03-07T00:02:57;60397.72;;;-146.93;100.00
21664;BME280;10993;52.510;13.456;2024-03-07T00:07:59;60361.25;;;-146.93;100.00
21664;BME280;10993;52.510;13.456;2024-03-07T00:12:59;60020.72;;;-146.93;100.00
21664;BME280;10993;52.510;13.456;2024-03-07T00:18:00;59990.31;;;-146.93;100.00
21664;BME280;10993;52.510;13.456;2024-03-07T00:23:02;59761.31;;;-146.93;100.00
21664;BME280;10993;52.510;13.456;2024-03-07T00:28:03;59582.97;;;-146.93;100.00
21664;BME280;10993;52.510;13.456;2024-03-07T00:33:04;59287.13;;;-146.93;100.00
21664;BME280;10993;52.510;13.456;2024-03-07T00:38:05;59116.91;;;-146.93;100.00
21664;BME280;10993;52.510;13.456;2024-03-07T00:43:06;58908.22;;;-146.93;100.00
21664;BME280;10993;52.510;13.456;2024-03-07T00:48:06;58829.22;;;-146.93;100.00
21664;BME280;10993;52.510;13.456;2024-03-07T00:53:08;58896.06;;;-146.93;100.00
21664;BME280;10993;52.510;13.456;2024-03-07T00:58:08;58987.25;;;-146.93;100.00
21664;BME280;10993;52.510;13.456;2024-03-07T01:03:09;59052.06;;;-146.93;100.00
21664;BME280;10993;52.510;13.456;2024-03-07T01:08:15;58885.94;;;-146.93;100.00
21664;BME280;10993;52.510;13.456;2024-03-07T01:13:15;58960.91;;;-146.93;100.00
21664;BME280;10993;52.510;13.456;2024-03-07T01:18:19;58827.19;;;-146.93;100.00
21664;BME280;10993;52.510;13.456;2024-03-07T01:23:20;58892.00;;;-146.93;100.00
21664;BME280;10993;52.510;13.456;2024-03-07T01:28:21;58740.06;;;-146.93;100.00
21664;BME280;10993;52.510;13.456;2024-03-07T01:33:22;58808.94;;;-146.93;100.00
21664;BME280;10993;52.510;13.456;2024-03-07T01:38:24;58914.31;;;-146.93;100.00
21664;BME280;10993;52.510;13.456;2024-03-07T01:43:25;58987.25;;;-146.93;100.00
21664;BME280;10993;52.510;13.456;2024-03-07T01:48:27;58598.25;;;-146.93;100.00
21664;BME280;10993;52.510;13.456;2024-03-07T01:53:30;58618.50;;;-146.93;100.00
21664;BME280;10993;52.510;13.456;2024-03-07T01:58:31;58598.25;;;-146.93;100.00
21664;BME280;10993;52.510;13.456;2024-03-07T02:03:32;58792.75;;;-146.93;100.00
21664;BME280;10993;52.510;13.456;2024-03-07T02:08:34;58802.88;;;-146.93;100.00
21664;BME280;10993;52.510;13.456;2024-03-07T02:13:34;59287.13;;;-146.93;100.00
21664;BME280;10993;52.510;13.456;2024-03-07T02:18:35;59086.53;;;-146.93;100.00
21664;BME280;10993;52.510;13.456;2024-03-07T02:23:38;59605.28;;;-146.93;100.00
21664;BME280;10993;52.510;13.456;2024-03-07T02:28:39;60020.72;;;-146.93;100.00
21664;BME280;10993;52.510;13.456;2024-03-07T02:33:39;60128.16;;;-146.93;100.00
21664;BME280;10993;52.510;13.456;2024-03-07T02:38:41;60128.16;;;-146.93;100.00
21664;BME280;10993;52.510;13.456;2024-03-07T02:43:42;60278.13;;;-146.93;100.00
21664;BME280;10993;52.510;13.456;2024-03-07T02:48:42;60545.69;;;-146.93;100.00
21664;BME280;10993;52.510;13.456;2024-03-07T02:53:44;60594.34;;;-146.93;100.00
21664;BME280;10993;52.510;13.456;2024-03-07T02:58:44;60422.06;;;-146.93;100.00
21664;BME280;10993;52.510;13.456;2024-03-07T03:03:44;60965.34;;;-146.93;100.00
21664;BME280;10993;52.510;13.456;2024-03-07T03:08:46;60290.31;;;-146.93;100.00
21664;BME280;10993;52.510;13.456;2024-03-07T03:13:46;60945.06;;;-146.93;100.00
21664;BME280;10993;52.510;13.456;2024-03-07T03:18:49;60886.25;;;-146.93;100.00
21664;BME280;10993;52.510;13.456;2024-03-07T03:23:51;60833.56;;;-146.93;100.00
21664;BME280;10993;52.510;13.456;2024-03-07T03:28:53;60770.72;;;-146.93;100.00
21664;BME280;10993;52.510;13.456;2024-03-07T03:33:54;60936.94;;;-146.93;100.00
21664;BME280;10993;52.510;13.456;2024-03-07T03:38:56;61082.91;;;-146.93;100.00
21664;BME280;10993;52.510;13.456;2024-03-07T03:43:56;60442.31;;;-146.93;100.00
21664;BME280;10993;52.510;13.456;2024-03-07T03:48:58;59992.34;;;-146.93;100.00
21664;BME280;10993;52.510;13.456;2024-03-07T03:54:00;59990.31;;;-146.93;100.00
21664;BME280;10993;52.510;13.456;2024-03-07T03:59:00;59818.06;;;-146.93;100.00
21664;BME280;10993;52.510;13.456;2024-03-07T04:04:00;59499.91;;;-146.93;100.00
21664;BME280;10993;52.510;13.456;2024-03-07T04:09:02;60592.31;;;-146.93;100.00
21664;BME280;10993;52.510;13.456;2024-03-07T04:14:04;59872.78;;;-146.93;100.00
21664;BME280;10993;52.510;13.456;2024-03-07T04:19:05;59639.72;;;-146.93;100.00
21664;BME280;10993;52.510;13.456;2024-03-07T04:24:06;59473.56;;;-146.93;100.00
21664;BME280;10993;52.510;13.456;2024-03-07T04:29:07;59481.66;;;-146.93;100.00
21664;BME280;10993;52.510;13.456;2024-03-07T04:34:08;59447.22;;;-146.93;100.00
21664;BME280;10993;52.510;13.456;2024-03-07T04:39:10;59704.56;;;-146.93;100.00
21664;BME280;10993;52.510;13.456;2024-03-07T04:44:22;59724.84;;;-146.93;100.00
21664;BME280;10993;52.510;13.456;2024-03-07T04:49:23;59368.19;;;-146.93;100.00
21664;BME280;10993;52.510;13.456;2024-03-07T04:54:28;59680.25;;;-146.93;100.00
21664;BME280;10993;52.510;13.456;2024-03-07T04:59:29;59943.72;;;-146.93;100.00
21664;BME280;10993;52.510;13.456;2024-03-07T05:04:29;59578.94;;;-146.93;100.00
21664;BME280;10993;52.510;13.456;2024-03-07T05:09:31;59809.94;;;-146.93;100.00
21664;BME280;10993;52.510;13.456;2024-03-07T05:14:33;59706.59;;;-146.93;100.00
21664;BME280;10993;52.510;13.456;2024-03-07T05:19:34;59692.41;;;-146.93;100.00
21664;BME280;10993;52.510;13.456;2024-03-07T05:24:36;59814.00;;;-146.93;100.00
21664;BME280;10993;52.510;13.456;2024-03-07T05:29:37;59785.63;;;-146.93;100.00
21664;BME280;10993;52.510;13.456;2024-03-07T05:40:35;60158.56;;;-146.93;100.00
21664;BME280;10993;52.510;13.456;2024-03-07T05:45:36;59793.75;;;-146.93;100.00
21664;BME280;10993;52.510;13.456;2024-03-07T05:50:37;59935.59;;;-146.93;100.00
21664;BME280;10993;52.510;13.456;2024-03-07T05:55:38;59682.28;;;-146.93;100.00
21664;BME280;10993;52.510;13.456;2024-03-07T06:00:39;59187.84;;;-146.93;100.00
21664;BME280;10993;52.510;13.456;2024-03-07T06:05:40;58705.63;;;-146.93;100.00
21664;BME280;10993;52.510;13.456;2024-03-07T06:10:44;58669.16;;;-146.93;100.00
21664;BME280;10993;52.510;13.456;2024-03-07T06:15:46;58039.13;;;-146.93;99.29
21664;BME280;10993;52.510;13.456;2024-03-07T06:20:46;57765.69;;;-146.93;97.87
21664;BME280;10993;52.510;13.456;2024-03-07T06:25:49;57474.06;;;-146.93;95.76
21664;BME280;10993;52.510;13.456;2024-03-07T06:30:54;57166.22;;;-146.93;92.36
21664;BME280;10993;52.510;13.456;2024-03-07T06:35:55;56909.06;;;-146.93;87.22
21664;BME280;10993;52.510;13.456;2024-03-07T06:40:57;56848.31;;;-146.93;83.78
21664;BME280;10993;52.510;13.456;2024-03-07T06:45:57;56694.41;;;-146.93;78.93
21664;BME280;10993;52.510;13.456;2024-03-07T06:50:58;56558.75;;;-146.93;75.26
21664;BME280;10993;52.510;13.456;2024-03-07T06:55:59;56690.38;;;-146.93;74.26
21664;BME280;10993;52.510;13.456;2024-03-07T07:01:00;56698.47;;;-146.93;70.78
21664;BME280;10993;52.510;13.456;2024-03-07T07:06:01;56645.81;;;-146.93;63.06
21664;BME280;10993;52.510;13.456;2024-03-07T07:11:03;56637.72;;;-146.93;61.53
21664;BME280;10993;52.510;13.456;2024-03-07T07:16:09;56607.34;;;-146.93;56.30
21664;BME280;10993;52.510;13.456;2024-03-07T07:21:10;56676.19;;;-146.93;57.73
21664;BME280;10993;52.510;13.456;2024-03-07T07:26:12;56641.78;;;-146.93;49.49
21664;BME280;10993;52.510;13.456;2024-03-07T07:31:12;56635.72;;;-146.93;44.21
21664;BME280;10993;52.510;13.456;2024-03-07T07:36:13;56660.00;;;-146.93;43.96
21664;BME280;10993;52.510;13.456;2024-03-07T07:41:15;56657.97;;;-146.93;41.58
21664;BME280;10993;52.510;13.456;2024-03-07T07:46:15;56635.72;;;-146.93;45.56
21664;BME280;10993;52.510;13.456;2024-03-07T07:51:16;56696.44;;;-146.93;42.55
21664;BME280;10993;52.510;13.456;2024-03-07T07:56:18;56666.06;;;-146.93;43.41
21664;BME280;10993;52.510;13.456;2024-03-07T08:01:18;56645.81;;;-146.93;41.63
21664;BME280;10993;52.510;13.456;2024-03-07T08:06:19;57508.47;;;-146.93;41.93
21664;BME280;10993;52.510;13.456;2024-03-07T08:11:20;56684.31;;;-146.93;42.28
21664;BME280;10993;52.510;13.456;2024-03-07T08:16:21;56627.59;;;-146.93;41.96
21664;BME280;10993;52.510;13.456;2024-03-07T08:21:21;56734.91;;;-146.93;40.90
21664;BME280;10993;52.510;13.456;2024-03-07T08:26:25;56720.75;;;-146.93;38.66
21664;BME280;10993;52.510;13.456;2024-03-07T08:31:25;56649.88;;;-146.93;37.57
21664;BME280;10993;52.510;13.456;2024-03-07T08:36:26;56698.47;;;-146.93;38.49
21664;BME280;10993;52.510;13.456;2024-03-07T08:41:28;56852.34;;;-146.93;35.81
21664;BME280;10993;52.510;13.456;2024-03-07T08:46:29;56815.91;;;-146.93;35.46
21664;BME280;10993;52.510;13.456;2024-03-07T08:51:29;56811.88;;;-146.93;35.25
21664;BME280;10993;52.510;13.456;2024-03-07T08:56:31;56919.19;;;-146.93;33.04
21664;BME280;10993;52.510;13.456;2024-03-07T09:01:31;56822.00;;;-146.93;33.07
21664;BME280;10993;52.510;13.456;2024-03-07T09:06:32;56890.84;;;-146.93;32.82
21664;BME280;10993;52.510;13.456;2024-03-07T09:11:33;56738.97;;;-146.93;35.05
21664;BME280;10993;52.510;13.456;2024-03-07T09:16:34;56799.72;;;-146.93;34.59
21664;BME280;10993;52.510;13.456;2024-03-07T09:21:35;56799.72;;;-146.93;33.87
21664;BME280;10993;52.510;13.456;2024-03-07T09:26:36;56783.50;;;-146.93;33.79
21664;BME280;10993;52.510;13.456;2024-03-07T09:31:37;56830.09;;;-146.93;33.21
21664;BME280;10993;52.510;13.456;2024-03-07T09:36:39;56931.34;;;-146.93;31.78
21664;BME280;10993;52.510;13.456;2024-03-07T09:41:44;56836.16;;;-146.93;30.75
21664;BME280;10993;52.510;13.456;2024-03-07T09:46:46;56809.84;;;-146.93;31.11
21664;BME280;10993;52.510;13.456;2024-03-07T09:51:47;56909.06;;;-146.93;30.65
21664;BME280;10993;52.510;13.456;2024-03-07T09:56:48;56751.13;;;-146.93;31.29
21664;BME280;10993;52.510;13.456;2024-03-07T10:01:51;56736.94;;;-146.93;33.01
21664;BME280;10993;52.510;13.456;2024-03-07T10:06:54;56743.03;;;-146.93;31.89
21664;BME280;10993;52.510;13.456;2024-03-07T10:11:57;56915.13;;;-146.93;30.46
21664;BME280;10993;52.510;13.456;2024-03-07T10:16:58;56909.06;;;-146.93;30.26
21664;BME280;10993;52.510;13.456;2024-03-07T10:21:59;56842.22;;;-146.93;30.03
21664;BME280;10993;52.510;13.456;2024-03-07T10:27:03;56896.91;;;-146.93;30.16
21664;BME280;10993;52.510;13.456;2024-03-07T10:32:11;56783.50;;;-146.93;30.34
21664;BME280;10993;52.510;13.456;2024-03-07T10:37:14;56828.06;;;-146.93;30.39
21664;BME280;10993;52.510;13.456;2024-03-07T10:42:18;56791.63;;;-146.93;30.51
21664;BME280;10993;52.510;13.456;2024-03-07T10:47:20;56718.72;;;-146.93;31.20
21664;BME280;10993;52.510;13.456;2024-03-07T10:52:28;56747.06;;;-146.93;30.88
21664;BME280;10993;52.510;13.456;2024-03-07T10:57:38;56783.50;;;-146.93;31.00
21664;BME280;10993;52.510;13.456;2024-03-07T11:02:45;56892.84;;;-146.93;29.95
21664;BME280;10993;52.510;13.456;2024-03-07T11:07:46;56734.91;;;-146.93;31.30
21664;BME280;10993;52.510;13.456;2024-03-07T11:12:49;56769.34;;;-146.93;31.20
21664;BME280;10993;52.510;13.456;2024-03-07T11:17:51;56714.66;;;-146.93;30.80
21664;BME280;10993;52.510;13.456;2024-03-07T11:22:54;56864.50;;;-146.93;29.83
21664;BME280;10993;52.510;13.456;2024-03-07T11:27:58;56850.34;;;-146.93;29.50
21664;BME280;10993;52.510;13.456;2024-03-07T11:33:01;56811.88;;;-146.93;30.08
21664;BME280;10993;52.510;13.456;2024-03-07T11:38:06;56785.53;;;-146.93;30.00
21664;BME280;10993;52.510;13.456;2024-03-07T11:43:08;56775.41;;;-146.93;30.37
21664;BME280;10993;52.510;13.456;2024-03-07T11:48:11;56773.38;;;-146.93;30.40
21664;BME280;10993;52.510;13.456;2024-03-07T11:53:11;56822.00;;;-146.93;29.81
21664;BME280;10993;52.510;13.456;2024-03-07T11:58:14;56568.88;;;-146.93;30.08
21664;BME280;10993;52.510;13.456;2024-03-07T12:03:17;56728.84;;;-146.93;31.48
21664;BME280;10993;52.510;13.456;2024-03-07T12:08:19;56698.47;;;-146.93;30.61
21664;BME280;10993;52.510;13.456;2024-03-07T12:13:24;56763.28;;;-146.93;30.90
21664;BME280;10993;52.510;13.456;2024-03-07T12:18:25;56779.47;;;-146.93;30.26
21664;BME280;10993;52.510;13.456;2024-03-07T12:23:26;56775.41;;;-146.93;30.60
21664;BME280;10993;52.510;13.456;2024-03-07T12:28:28;56631.66;;;-146.93;31.89
21664;BME280;10993;52.510;13.456;2024-03-07T12:33:33;56611.41;;;-146.93;32.53
21664;BME280;10993;52.510;13.456;2024-03-07T12:38:39;56589.13;;;-146.93;34.01
21664;BME280;10993;52.510;13.456;2024-03-07T12:43:42;56544.59;;;-146.93;33.38
21664;BME280;10993;52.510;13.456;2024-03-07T12:48:43;56572.94;;;-146.93;32.33
21664;BME280;10993;52.510;13.456;2024-03-07T12:53:44;56566.88;;;-146.93;33.06
21664;BME280;10993;52.510;13.456;2024-03-07T12:58:47;56410.97;;;-146.93;33.44
21664;BME280;10993;52.510;13.456;2024-03-07T13:03:49;56558.75;;;-146.93;34.38
21664;BME280;10993;52.510;13.456;2024-03-07T13:08:50;56564.84;;;-146.93;34.56
21664;BME280;10993;52.510;13.456;2024-03-07T13:13:51;56536.50;;;-146.93;35.52
21664;BME280;10993;52.510;13.456;2024-03-07T13:18:52;56558.75;;;-146.93;34.12
21664;BME280;10993;52.510;13.456;2024-03-07T13:23:54;56595.22;;;-146.93;32.79
21664;BME280;10993;52.510;13.456;2024-03-07T13:28:56;56479.81;;;-146.93;32.62
21664;BME280;10993;52.510;13.456;2024-03-07T13:34:00;56568.88;;;-146.93;33.29
21664;BME280;10993;52.510;13.456;2024-03-07T13:39:02;56577.00;;;-146.93;33.06
21664;BME280;10993;52.510;13.456;2024-03-07T13:44:04;56500.06;;;-146.93;33.21
21664;BME280;10993;52.510;13.456;2024-03-07T13:49:05;56587.13;;;-146.93;32.08
21664;BME280;10993;52.510;13.456;2024-03-07T13:54:12;56714.66;;;-146.93;32.54
21664;BME280;10993;52.510;13.456;2024-03-07T13:59:46;56522.31;;;-146.93;33.37
21664;BME280;10993;52.510;13.456;2024-03-07T14:05:27;56508.16;;;-146.93;33.48
21664;BME280;10993;52.510;13.456;2024-03-07T14:10:57;56467.66;;;-146.93;33.81
21664;BME280;10993;52.510;13.456;2024-03-07T14:16:28;56540.53;;;-146.93;33.82
21664;BME280;10993;52.510;13.456;2024-03-07T14:21:53;56445.38;;;-146.93;33.98
21664;BME280;10993;52.510;13.456;2024-03-07T14:27:17;56564.84;;;-146.93;34.35
21664;BME280;10993;52.510;13.456;2024-03-07T14:32:22;56524.34;;;-146.93;35.00
21664;BME280;10993;52.510;13.456;2024-03-07T14:37:25;56568.88;;;-146.93;35.17
21664;BME280;10993;52.510;13.456;2024-03-07T14:42:28;56562.81;;;-146.93;34.85
21664;BME280;10993;52.510;13.456;2024-03-07T14:47:30;56556.75;;;-146.93;35.25
21664;BME280;10993;52.510;13.456;2024-03-07T14:52:30;56520.28;;;-146.93;35.05
21664;BME280;10993;52.510;13.456;2024-03-07T14:57:31;56560.78;;;-146.93;34.94
21664;BME280;10993;52.510;13.456;2024-03-07T15:02:33;56560.78;;;-146.93;35.20
21664;BME280;10993;52.510;13.456;2024-03-07T15:07:37;56577.00;;;-146.93;34.96
21664;BME280;10993;52.510;13.456;2024-03-07T15:12:37;56554.72;;;-146.93;34.47
21664;BME280;10993;52.510;13.456;2024-03-07T15:17:39;56536.50;;;-146.93;34.65
21664;BME280;10993;52.510;13.456;2024-03-07T15:22:40;56524.34;;;-146.93;34.81
21664;BME280;10993;52.510;13.456;2024-03-07T15:27:41;56566.88;;;-146.93;34.69
21664;BME280;10993;52.510;13.456;2024-03-07T15:32:43;56574.97;;;-146.93;34.75
21664;BME280;10993;52.510;13.456;2024-03-07T15:37:44;56560.78;;;-146.93;34.99
21664;BME280;10993;52.510;13.456;2024-03-07T15:42:45;56534.47;;;-146.93;34.81
21664;BME280;10993;52.510;13.456;2024-03-07T15:47:48;56556.75;;;-146.93;35.06
21664;BME280;10993;52.510;13.456;2024-03-07T15:52:51;56536.50;;;-146.93;35.20
21664;BME280;10993;52.510;13.456;2024-03-07T15:57:52;56548.66;;;-146.93;35.38
21664;BME280;10993;52.510;13.456;2024-03-07T16:02:56;57131.81;;;-146.93;35.55
21664;BME280;10993;52.510;13.456;2024-03-07T16:07:58;56524.34;;;-146.93;36.08
21664;BME280;10993;52.510;13.456;2024-03-07T16:12:59;56504.09;;;-146.93;36.16
21664;BME280;10993;52.510;13.456;2024-03-07T16:18:02;56423.13;;;-146.93;36.19
21664;BME280;10993;52.510;13.456;2024-03-07T16:23:04;56532.44;;;-146.93;36.48
21664;BME280;10993;52.510;13.456;2024-03-07T16:40:25;56542.56;;;-146.93;37.15
21664;BME280;10993;52.510;13.456;2024-03-07T16:45:27;56461.59;;;-146.93;37.50
21664;BME280;10993;52.510;13.456;2024-03-07T16:50:30;56550.66;;;-146.93;37.75
21664;BME280;10993;52.510;13.456;2024-03-07T16:55:32;56526.38;;;-146.93;37.92
21664;BME280;10993;52.510;13.456;2024-03-07T17:00:33;56538.53;;;-146.93;38.56
21664;BME280;10993;52.510;13.456;2024-03-07T17:05:35;56524.34;;;-146.93;38.58
21664;BME280;10993;52.510;13.456;2024-03-07T17:10:37;56548.66;;;-146.93;38.52
21664;BME280;10993;52.510;13.456;2024-03-07T17:15:41;56493.97;;;-146.93;39.01
21664;BME280;10993;52.510;13.456;2024-03-07T17:20:45;56479.81;;;-146.93;39.27
21664;BME280;10993;52.510;13.456;2024-03-07T17:25:47;56342.13;;;-146.93;39.60
21664;BME280;10993;52.510;13.456;2024-03-07T17:30:52;56560.78;;;-146.93;39.96
21664;BME280;10993;52.510;13.456;2024-03-07T17:35:52;56528.41;;;-146.93;39.98
21664;BME280;10993;52.510;13.456;2024-03-07T17:40:54;57285.72;;;-146.93;40.00
21664;BME280;10993;52.510;13.456;2024-03-07T17:45:55;56558.75;;;-146.93;40.33
21664;BME280;10993;52.510;13.456;2024-03-07T17:50:59;56524.34;;;-146.93;40.76
21664;BME280;10993;52.510;13.456;2024-03-07T17:56:05;56556.75;;;-146.93;40.93
21664;BME280;10993;52.510;13.456;2024-03-07T18:01:06;56498.03;;;-146.93;40.00
21664;BME280;10993;52.510;13.456;2024-03-07T18:06:06;56518.28;;;-146.93;40.28
21664;BME280;10993;52.510;13.456;2024-03-07T18:11:10;56526.38;;;-146.93;40.24
21664;BME280;10993;52.510;13.456;2024-03-07T18:16:13;56536.50;;;-146.93;40.53
21664;BME280;10993;52.510;13.456;2024-03-07T18:21:14;56493.97;;;-146.93;40.71
21664;BME280;10993;52.510;13.456;2024-03-07T18:26:16;56510.19;;;-146.93;40.96
21664;BME280;10993;52.510;13.456;2024-03-07T18:31:16;56548.66;;;-146.93;41.56
21664;BME280;10993;52.510;13.456;2024-03-07T18:36:18;56487.91;;;-146.93;41.58
21664;BME280;10993;52.510;13.456;2024-03-07T18:41:22;56572.94;;;-146.93;42.18
21664;BME280;10993;52.510;13.456;2024-03-07T18:46:23;56493.97;;;-146.93;42.29
21664;BME280;10993;52.510;13.456;2024-03-07T18:51:24;56558.75;;;-146.93;42.38
21664;BME280;10993;52.510;13.456;2024-03-07T18:56:25;56532.44;;;-146.93;43.14
21664;BME280;10993;52.510;13.456;2024-03-07T19:01:26;56463.59;;;-146.93;43.50
21664;BME280;10993;52.510;13.456;2024-03-07T19:06:28;56548.66;;;-146.93;43.66
21664;BME280;10993;52.510;13.456;2024-03-07T19:11:32;56524.34;;;-146.93;44.61
21664;BME280;10993;52.510;13.456;2024-03-07T19:16:36;56536.50;;;-146.93;44.74
21664;BME280;10993;52.510;13.456;2024-03-07T19:21:40;56504.09;;;-146.93;44.87
21664;BME280;10993;52.510;13.456;2024-03-07T19:26:43;56410.97;;;-146.93;45.85
21664;BME280;10993;52.510;13.456;2024-03-07T19:31:46;56520.28;;;-146.93;46.54
21664;BME280;10993;52.510;13.456;2024-03-07T19:36:49;56536.50;;;-146.93;47.59
21664;BME280;10993;52.510;13.456;2024-03-07T19:41:51;56536.50;;;-146.93;47.33
21664;BME280;10993;52.510;13.456;2024-03-07T19:46:52;56550.66;;;-146.93;47.93
21664;BME280;10993;52.510;13.456;2024-03-07T19:51:53;56522.31;;;-146.93;48.94
21664;BME280;10993;52.510;13.456;2024-03-07T19:56:55;56524.34;;;-146.93;49.56
21664;BME280;10993;52.510;13.456;2024-03-07T20:02:04;56315.81;;;-146.93;49.53
21664;BME280;10993;52.510;13.456;2024-03-07T20:07:07;56402.88;;;-146.93;50.46
21664;BME280;10993;52.510;13.456;2024-03-07T20:12:12;56552.69;;;-146.93;49.99
21664;BME280;10993;52.510;13.456;2024-03-07T20:17:16;56520.28;;;-146.93;50.04
21664;BME280;10993;52.510;13.456;2024-03-07T20:22:17;56524.34;;;-146.93;49.43
21664;BME280;10993;52.510;13.456;2024-03-07T20:27:20;56461.59;;;-146.93;50.44
21664;BME280;10993;52.510;13.456;2024-03-07T20:32:20;56532.44;;;-146.93;50.86
21664;BME280;10993;52.510;13.456;2024-03-07T20:37:21;56564.84;;;-146.93;51.44
21664;BME280;10993;52.510;13.456;2024-03-07T20:42:24;56437.28;;;-146.93;52.32
21664;BME280;10993;52.510;13.456;2024-03-07T20:47:25;56560.78;;;-146.93;52.08
21664;BME280;10993;52.510;13.456;2024-03-07T20:52:26;56546.63;;;-146.93;52.62
21664;BME280;10993;52.510;13.456;2024-03-07T20:57:30;56530.41;;;-146.93;53.00
21664;BME280;10993;52.510;13.456;2024-03-07T21:02:30;56540.53;;;-146.93;53.31
21664;BME280;10993;52.510;13.456;2024-03-07T21:07:32;56516.25;;;-146.93;53.79
21664;BME280;10993;52.510;13.456;2024-03-07T21:12:36;56469.69;;;-146.93;53.89
21664;BME280;10993;52.510;13.456;2024-03-07T21:17:38;56451.47;;;-146.93;54.68
21664;BME280;10993;52.510;13.456;2024-03-07T21:22:39;56423.13;;;-146.93;55.45
21664;BME280;10993;52.510;13.456;2024-03-07T21:27:41;56556.75;;;-146.93;55.96
21664;BME280;10993;52.510;13.456;2024-03-07T21:32:44;56548.66;;;-146.93;57.32
21664;BME280;10993;52.510;13.456;2024-03-07T21:37:44;56493.97;;;-146.93;58.01
21664;BME280;10993;52.510;13.456;2024-03-07T21:42:48;56534.47;;;-146.93;57.98
21664;BME280;10993;52.510;13.456;2024-03-07T21:47:49;56530.41;;;-146.93;58.09
21664;BME280;10993;52.510;13.456;2024-03-07T21:52:49;56475.75;;;-146.93;58.86
21664;BME280;10993;52.510;13.456;2024-03-07T21:57:51;56572.94;;;-146.93;59.87
21664;BME280;10993;52.510;13.456;2024-03-07T22:02:54;56493.97;;;-146.93;60.78
21664;BME280;10993;52.510;13.456;2024-03-07T22:07:55;56514.22;;;-146.93;61.53
21664;BME280;10993;52.510;13.456;2024-03-07T22:12:57;56514.22;;;-146.93;62.52
21664;BME280;10993;52.510;13.456;2024-03-07T22:17:57;56595.22;;;-146.93;63.90
21664;BME280;10993;52.510;13.456;2024-03-07T22:22:57;56327.97;;;-146.93;63.89
21664;BME280;10993;52.510;13.456;2024-03-07T22:27:59;56587.13;;;-146.93;64.16
21664;BME280;10993;52.510;13.456;2024-03-07T22:33:04;56506.13;;;-146.93;64.39
21664;BME280;10993;52.510;13.456;2024-03-07T22:38:05;56591.16;;;-146.93;65.13
21664;BME280;10993;52.510;13.456;2024-03-07T22:43:10;56544.59;;;-146.93;65.39
21664;BME280;10993;52.510;13.456;2024-03-07T22:48:10;56623.56;;;-146.93;66.28
21664;BME280;10993;52.510;13.456;2024-03-07T22:53:10;56548.66;;;-146.93;66.00
21664;BME280;10993;52.510;13.456;2024-03-07T22:58:13;56599.25;;;-146.93;67.00
21664;BME280;10993;52.510;13.456;2024-03-07T23:03:14;56601.28;;;-146.93;68.32
21664;BME280;10993;52.510;13.456;2024-03-07T23:08:14;56544.59;;;-146.93;68.35
21664;BME280;10993;52.510;13.456;2024-03-07T23:13:16;56603.31;;;-146.93;68.24
21664;BME280;10993;52.510;13.456;2024-03-07T23:18:16;56581.03;;;-146.93;68.05
21664;BME280;10993;52.510;13.456;2024-03-07T23:23:16;57690.75;;;-146.93;69.38
21664;BME280;10993;52.510;13.456;2024-03-07T23:28:18;56572.94;;;-146.93;69.00
21664;BME280;10993;52.510;13.456;2024-03-07T23:33:19;56637.72;;;-146.93;68.65
21664;BME280;10993;52.510;13.456;2024-03-07T23:38:20;56627.59;;;-146.93;69.83
21664;BME280;10993;52.510;13.456;2024-03-07T23:43:23;56623.56;;;-146.93;69.86
21664;BME280;10993;52.510;13.456;2024-03-07T23:48:24;56617.47;;;-146.93;70.46
21664;BME280;10993;52.510;13.456;2024-03-07T23:53:25;56645.81;;;-146.93;70.15
21664;BME280;10993;52.510;13.456;2024-03-07T23:58:27;56637.72;;;-146.93;70.76
